createdAt,value
2022-09-28T00:00:47.974Z,4.47
2022-09-28T00:03:14.756Z,3.28
2022-09-28T00:05:41.456Z,3.05
2022-09-28T00:08:08.262Z,2.65
2022-09-28T00:10:35.006Z,1.60
2022-09-28T00:13:01.919Z,2.03
2022-09-28T00:15:29.243Z,3.03
2022-09-28T00:17:56.098Z,3.17
2022-09-28T00:20:23.091Z,4.18
2022-09-28T00:22:49.894Z,2.97
2022-09-28T00:25:17.076Z,1.38
2022-09-28T00:27:50.002Z,0.50
2022-09-28T00:30:16.876Z,3.40
2022-09-28T00:32:43.911Z,2.15
2022-09-28T00:35:11.084Z,0.80
2022-09-28T00:37:38.246Z,1.65
2022-09-28T00:40:05.681Z,0.95
2022-09-28T00:42:32.542Z,1.58
2022-09-28T00:44:59.739Z,1.80
2022-09-28T00:47:52.236Z,1.92
2022-09-28T00:50:31.188Z,2.55
2022-09-28T00:53:23.814Z,2.78
2022-09-28T00:55:53.455Z,2.72
2022-09-28T00:58:27.674Z,0.82
2022-09-28T01:00:56.504Z,1.38
2022-09-28T01:03:23.827Z,1.98
2022-09-28T01:05:52.049Z,0.93
2022-09-28T01:08:21.190Z,6.18
2022-09-28T01:10:48.884Z,0.88
2022-09-28T01:13:17.905Z,3.60
2022-09-28T01:16:08.113Z,1.33
2022-09-28T01:18:59.825Z,2.33
2022-09-28T01:21:38.735Z,1.60
2022-09-28T01:24:18.529Z,3.47
2022-09-28T01:26:48.252Z,1.58
2022-09-28T01:29:38.002Z,2.72
2022-09-28T01:32:20.400Z,0.55
2022-09-28T01:35:01.851Z,2.78
2022-09-28T01:37:35.630Z,1.33
2022-09-28T01:40:04.059Z,0.75
2022-09-28T01:42:32.725Z,1.63
2022-09-28T01:45:06.017Z,1.92
2022-09-28T01:47:36.268Z,2.30
2022-09-28T01:50:12.540Z,4.00
2022-09-28T01:52:49.565Z,2.30
2022-09-28T01:55:46.827Z,2.50
2022-09-28T01:58:29.514Z,0.85
2022-09-28T02:01:03.881Z,1.88
2022-09-28T02:03:39.287Z,1.65
2022-09-28T02:06:29.094Z,0.90
2022-09-28T02:08:59.311Z,1.40
2022-09-28T02:11:38.177Z,0.97
2022-09-28T02:14:07.085Z,2.65
2022-09-28T02:16:48.392Z,1.23
2022-09-28T02:19:19.070Z,2.08
2022-09-28T02:24:41.341Z,5.68
2022-09-28T02:27:39.532Z,3.22
2022-09-28T02:30:07.662Z,5.97
2022-09-28T02:32:40.830Z,2.30
2022-09-28T02:35:16.411Z,1.42
2022-09-28T02:37:44.801Z,1.23
2022-09-28T02:40:24.917Z,8.27
2022-09-28T02:43:00.795Z,6.65
2022-09-28T02:45:37.332Z,2.50
2022-09-28T02:48:41.281Z,2.38
2022-09-28T02:51:31.069Z,0.98
2022-09-28T02:54:15.443Z,0.98
2022-09-28T02:56:54.754Z,2.92
2022-09-28T02:59:39.917Z,1.38
2022-09-28T03:02:12.643Z,4.13
2022-09-28T03:04:44.141Z,3.28
2022-09-28T03:07:33.067Z,1.50
2022-09-28T03:10:08.866Z,2.50
2022-09-28T03:12:36.659Z,1.92
2022-09-28T03:15:23.018Z,4.57
2022-09-28T03:17:50.155Z,3.83
2022-09-28T03:20:17.398Z,2.03
2022-09-28T03:22:52.062Z,1.85
2022-09-28T03:25:34.578Z,3.35
2022-09-28T03:28:01.740Z,1.00
2022-09-28T03:30:30.439Z,2.08
2022-09-28T03:32:59.405Z,3.53
2022-09-28T03:35:28.515Z,2.85
2022-09-28T03:37:56.457Z,1.13
2022-09-28T03:40:25.579Z,1.30
2022-09-28T03:42:52.635Z,2.90
2022-09-28T03:45:20.557Z,0.95
2022-09-28T03:47:49.968Z,2.55
2022-09-28T03:50:18.649Z,1.02
2022-09-28T03:52:45.553Z,1.38
2022-09-28T03:55:12.489Z,1.02
2022-09-28T03:57:39.314Z,2.25
2022-09-28T04:00:07.345Z,1.05
2022-09-28T04:02:40.525Z,0.80
2022-09-28T04:05:08.218Z,1.27
2022-09-28T04:07:35.168Z,0.98
2022-09-28T04:10:02.015Z,3.60
2022-09-28T04:12:28.973Z,1.33
2022-09-28T04:14:55.808Z,4.63
2022-09-28T04:17:22.680Z,1.98
2022-09-28T04:19:49.654Z,2.67
2022-09-28T04:22:25.740Z,0.70
2022-09-28T04:24:53.413Z,0.77
2022-09-28T04:27:51.009Z,1.88
2022-09-28T04:30:18.104Z,3.65
2022-09-28T04:32:48.747Z,3.95
2022-09-28T04:35:16.869Z,1.15
2022-09-28T04:37:43.607Z,4.97
2022-09-28T04:40:10.909Z,1.40
2022-09-28T04:42:38.060Z,3.13
2022-09-28T04:45:05.371Z,1.55
2022-09-28T04:50:21.534Z,1.77
2022-09-28T04:53:14.137Z,1.92
2022-09-28T04:55:40.863Z,0.98
2022-09-28T04:58:07.550Z,2.90
2022-09-28T05:00:35.165Z,2.33
2022-09-28T05:03:22.527Z,4.32
2022-09-28T05:06:16.038Z,3.80
2022-09-28T05:08:46.996Z,1.33
2022-09-28T05:11:15.031Z,1.02
2022-09-28T05:13:45.646Z,1.40
2022-09-28T05:16:16.247Z,1.67
2022-09-28T05:19:10.079Z,2.30
2022-09-28T05:21:37.031Z,1.88
2022-09-28T05:24:07.492Z,3.85
2022-09-28T05:26:36.254Z,0.75
2022-09-28T05:29:03.118Z,3.70
2022-09-28T05:31:56.502Z,2.22
2022-09-28T05:34:41.869Z,2.67
2022-09-28T05:37:13.351Z,2.85
2022-09-28T05:39:40.466Z,3.95
2022-09-28T05:42:08.017Z,1.35
2022-09-28T05:44:34.901Z,4.07
2022-09-28T05:47:02.782Z,1.58
2022-09-28T05:49:31.678Z,2.17
2022-09-28T05:52:00.517Z,0.90
2022-09-28T05:54:27.284Z,2.45
2022-09-28T05:56:53.993Z,0.73
2022-09-28T05:59:20.814Z,1.33
2022-09-28T06:01:47.855Z,1.00
2022-09-28T06:04:16.240Z,3.60
2022-09-28T06:06:44.487Z,1.70
2022-09-28T06:09:11.320Z,1.90
2022-09-28T06:11:59.324Z,0.77
2022-09-28T06:14:39.760Z,1.42
2022-09-28T06:17:06.652Z,1.42
2022-09-28T06:19:33.613Z,1.30
2022-09-28T06:22:19.006Z,0.77
2022-09-28T06:24:54.459Z,1.10
2022-09-28T06:27:21.227Z,0.85
2022-09-28T06:29:48.632Z,0.60
2022-09-28T06:32:15.415Z,0.80
2022-09-28T06:34:45.272Z,0.40
2022-09-28T06:37:12.691Z,0.57
2022-09-28T06:39:40.185Z,0.35
2022-09-28T06:42:07.098Z,2.20
2022-09-28T06:45:02.951Z,0.60
2022-09-28T06:47:43.488Z,1.15
2022-09-28T06:50:33.595Z,0.65
2022-09-28T06:53:14.019Z,0.77
2022-09-28T06:56:00.573Z,0.32
2022-09-28T06:58:28.688Z,0.98
2022-09-28T07:01:00.841Z,0.60
2022-09-28T07:03:30.968Z,0.65
2022-09-28T07:06:36.325Z,3.22
2022-09-28T07:09:33.403Z,1.08
2022-09-28T07:12:21.844Z,1.52
2022-09-28T07:15:03.886Z,0.40
2022-09-28T07:17:32.472Z,0.60
2022-09-28T07:20:12.862Z,1.02
2022-09-28T07:22:43.624Z,1.67
2022-09-28T07:25:16.914Z,0.60
2022-09-28T07:28:05.267Z,2.05
2022-09-28T07:30:52.577Z,0.93
2022-09-28T07:33:38.122Z,1.98
2022-09-28T07:36:17.933Z,2.55
2022-09-28T07:38:45.333Z,1.55
2022-09-28T07:41:12.155Z,1.70
2022-09-28T07:43:56.797Z,2.35
2022-09-28T07:46:23.741Z,2.92
2022-09-28T07:48:56.641Z,3.25
2022-09-28T07:51:34.844Z,4.57
2022-09-28T07:54:21.889Z,1.58
2022-09-28T07:57:07.236Z,1.92
2022-09-28T07:59:54.714Z,1.77
2022-09-28T08:02:44.539Z,4.32
2022-09-28T08:05:16.100Z,1.63
2022-09-28T08:07:43.650Z,0.73
2022-09-28T08:10:11.694Z,2.55
2022-09-28T08:12:46.260Z,1.88
2022-09-28T08:15:38.295Z,1.65
2022-09-28T08:18:35.652Z,1.00
2022-09-28T08:21:22.762Z,2.08
2022-09-28T08:23:49.749Z,3.63
2022-09-28T08:26:17.004Z,2.70
2022-09-28T08:28:46.797Z,4.28
2022-09-28T08:31:32.326Z,2.85
2022-09-28T08:34:20.093Z,2.00
2022-09-28T08:37:09.123Z,3.50
2022-09-28T08:39:41.676Z,3.15
2022-09-28T08:42:32.728Z,4.20
2022-09-28T08:45:23.283Z,3.45
2022-09-28T08:48:38.490Z,5.28
2022-09-28T08:51:43.789Z,5.40
2022-09-28T08:54:37.950Z,2.95
2022-09-28T08:57:23.163Z,3.80
2022-09-28T08:59:58.345Z,5.78
2022-09-28T09:02:36.804Z,10.02
2022-09-28T09:05:17.167Z,4.97
2022-09-28T09:08:39.721Z,5.75
2022-09-28T09:11:23.874Z,3.33
2022-09-28T09:14:16.696Z,8.55
2022-09-28T09:17:07.398Z,6.07
2022-09-28T09:19:55.688Z,6.85
2022-09-28T09:22:40.783Z,4.18
2022-09-28T09:25:18.203Z,9.55
2022-09-28T09:28:18.849Z,4.85
2022-09-28T09:31:10.095Z,6.10
2022-09-28T09:33:42.621Z,7.97
2022-09-28T09:37:16.745Z,4.60
2022-09-28T09:40:32.081Z,5.80
2022-09-28T09:44:03.071Z,4.25
2022-09-28T09:47:10.174Z,6.13
2022-09-28T09:49:56.028Z,6.93
2022-09-28T09:52:55.897Z,6.47
2022-09-28T09:55:44.686Z,4.20
2022-09-28T09:58:26.011Z,6.32
2022-09-28T10:01:07.688Z,10.57
2022-09-28T10:03:53.586Z,5.20
2022-09-28T10:06:27.432Z,5.85
2022-09-28T10:09:03.829Z,4.15
2022-09-28T10:11:37.397Z,5.13
2022-09-28T10:14:08.381Z,3.72
2022-09-28T10:16:38.608Z,4.55
2022-09-28T10:19:13.074Z,4.95
2022-09-28T10:22:00.018Z,4.70
2022-09-28T10:24:36.014Z,3.53
2022-09-28T10:27:14.492Z,4.45
2022-09-28T10:30:08.334Z,3.60
2022-09-28T10:32:46.211Z,2.47
2022-09-28T10:35:19.166Z,6.15
2022-09-28T10:37:59.347Z,3.70
2022-09-28T10:41:02.761Z,3.00
2022-09-28T10:44:06.621Z,2.45
2022-09-28T10:47:08.883Z,4.15
2022-09-28T10:49:46.967Z,2.00
2022-09-28T10:52:54.072Z,6.43
2022-09-28T10:55:39.253Z,2.67
2022-09-28T10:58:24.756Z,2.72
2022-09-28T11:00:52.833Z,4.68
2022-09-28T11:03:25.430Z,6.32
2022-09-28T11:06:02.359Z,3.90
2022-09-28T11:08:37.734Z,5.45
2022-09-28T11:11:15.021Z,3.67
2022-09-28T11:13:51.809Z,4.53
2022-09-28T11:16:32.245Z,3.77
2022-09-28T11:19:27.231Z,4.47
2022-09-28T11:21:54.337Z,4.22
2022-09-28T11:24:27.275Z,5.13
2022-09-28T11:27:00.289Z,7.40
2022-09-28T11:29:43.997Z,7.68
2022-09-28T11:32:31.671Z,5.15
2022-09-28T11:35:19.868Z,3.88
2022-09-28T11:38:12.524Z,10.73
2022-09-28T11:41:30.319Z,8.35
2022-09-28T11:44:06.284Z,8.45
2022-09-28T11:46:42.145Z,7.80
2022-09-28T11:49:20.255Z,10.38
2022-09-28T11:51:48.625Z,4.22
2022-09-28T11:54:26.716Z,11.15
2022-09-28T11:56:53.881Z,10.05
2022-09-28T11:59:20.563Z,6.70
2022-09-28T12:01:54.726Z,6.80
2022-09-28T12:04:37.007Z,8.82
2022-09-28T12:07:25.758Z,7.68
2022-09-28T12:10:11.733Z,7.85
2022-09-28T12:12:47.782Z,5.70
2022-09-28T12:15:24.431Z,13.70
2022-09-28T12:18:12.075Z,8.43
2022-09-28T12:20:42.728Z,7.50
2022-09-28T12:23:16.997Z,10.57
2022-09-28T12:25:52.128Z,6.65
2022-09-28T12:28:30.364Z,7.28
2022-09-28T12:31:00.364Z,10.20
2022-09-28T12:33:27.193Z,9.18
2022-09-28T12:36:21.345Z,8.32
2022-09-28T12:39:30.681Z,9.15
2022-09-28T12:42:41.188Z,12.00
2022-09-28T12:45:23.775Z,12.40
2022-09-28T12:48:14.985Z,6.95
2022-09-28T12:53:41.937Z,11.20
2022-09-28T12:56:21.662Z,15.30
2022-09-28T12:59:08.513Z,8.60
2022-09-28T13:01:44.906Z,12.65
2022-09-28T13:04:50.026Z,9.27
2022-09-28T13:07:26.001Z,8.00
2022-09-28T13:09:58.698Z,11.88
2022-09-28T13:12:37.772Z,10.05
2022-09-28T13:15:27.470Z,9.63
2022-09-28T13:18:03.165Z,10.63
2022-09-28T13:21:11.383Z,9.93
2022-09-28T13:23:44.343Z,9.55
2022-09-28T13:26:30.311Z,9.23
2022-09-28T13:29:04.438Z,7.55
2022-09-28T13:31:34.938Z,7.95
2022-09-28T13:34:04.628Z,6.40
2022-09-28T13:36:31.338Z,10.80
2022-09-28T13:38:59.695Z,8.45
2022-09-28T13:41:40.559Z,6.75
2022-09-28T13:44:13.489Z,8.75
2022-09-28T13:47:08.583Z,8.23
2022-09-28T13:49:48.724Z,8.95
2022-09-28T13:52:43.976Z,5.90
2022-09-28T13:55:23.311Z,10.68
2022-09-28T13:58:13.460Z,7.05
2022-09-28T14:01:24.919Z,10.55
2022-09-28T14:03:56.016Z,12.52
2022-09-28T14:09:13.643Z,9.45
2022-09-28T14:11:43.243Z,8.02
2022-09-28T14:14:51.596Z,7.03
2022-09-28T14:17:21.539Z,8.18
2022-09-28T14:20:05.296Z,8.50
2022-09-28T14:23:17.079Z,9.32
2022-09-28T14:25:45.755Z,8.77
2022-09-28T14:28:43.072Z,9.43
2022-09-28T14:31:17.664Z,8.35
2022-09-28T14:33:54.927Z,7.03
2022-09-28T14:36:46.449Z,10.15
2022-09-28T14:39:47.566Z,8.70
2022-09-28T14:42:18.248Z,7.43
2022-09-28T14:45:06.496Z,9.23
2022-09-28T14:47:42.383Z,8.07
2022-09-28T14:50:27.525Z,5.55
2022-09-28T14:52:55.752Z,9.65
2022-09-28T14:55:38.860Z,6.93
2022-09-28T14:58:07.806Z,6.47
2022-09-28T15:00:35.073Z,9.52
2022-09-28T15:03:05.943Z,8.65
2022-09-28T15:05:43.997Z,9.00
2022-09-28T15:08:11.921Z,9.80
2022-09-28T15:10:44.116Z,7.68
2022-09-28T15:13:30.061Z,8.43
2022-09-28T15:16:36.388Z,6.40
2022-09-28T15:19:20.577Z,7.78
2022-09-28T15:21:50.131Z,12.32
2022-09-28T15:24:25.325Z,10.68
2022-09-28T15:26:53.229Z,12.13
2022-09-28T15:29:21.129Z,8.63
2022-09-28T15:31:51.115Z,5.18
2022-09-28T15:34:51.256Z,9.25
2022-09-28T15:37:29.893Z,12.20
2022-09-28T15:39:57.759Z,11.05
2022-09-28T15:42:24.948Z,8.15
2022-09-28T15:45:26.972Z,9.80
2022-09-28T15:48:15.098Z,9.25
2022-09-28T15:51:11.989Z,5.30
2022-09-28T15:53:44.053Z,12.05
2022-09-28T15:56:11.857Z,10.07
2022-09-28T15:58:39.742Z,6.55
2022-09-28T16:01:36.276Z,8.88
2022-09-28T16:04:38.379Z,6.38
2022-09-28T16:07:35.551Z,7.25
2022-09-28T16:10:11.514Z,14.90
2022-09-28T16:12:38.258Z,11.85
2022-09-28T16:15:06.853Z,12.90
2022-09-28T16:17:35.488Z,6.35
2022-09-28T16:20:32.178Z,10.82
2022-09-28T16:23:06.091Z,10.00
2022-09-28T16:25:35.939Z,9.25
2022-09-28T16:28:03.196Z,12.00
2022-09-28T16:30:32.447Z,14.75
2022-09-28T16:32:59.378Z,19.95
2022-09-28T16:35:42.940Z,6.72
2022-09-28T16:38:15.038Z,11.70
2022-09-28T16:40:53.779Z,15.68
2022-09-28T16:43:27.003Z,11.25
2022-09-28T16:45:57.682Z,11.68
2022-09-28T16:48:27.715Z,14.85
2022-09-28T16:50:55.098Z,10.43
2022-09-28T16:53:40.778Z,10.50
2022-09-28T16:56:08.212Z,11.50
2022-09-28T16:58:35.766Z,14.50
2022-09-28T17:01:02.610Z,10.32
2022-09-28T17:03:30.042Z,8.02
2022-09-28T17:05:57.249Z,8.18
2022-09-28T17:08:24.903Z,11.63
2022-09-28T17:13:41.756Z,10.85
2022-09-28T17:16:17.953Z,11.63
2022-09-28T17:18:45.274Z,12.48
2022-09-28T17:21:19.589Z,9.82
2022-09-28T17:23:47.679Z,10.60
2022-09-28T17:26:23.301Z,11.68
2022-09-28T17:28:50.245Z,13.82
2022-09-28T17:31:17.208Z,9.88
2022-09-28T17:33:44.051Z,11.27
2022-09-28T17:36:14.465Z,12.63
2022-09-28T17:38:42.942Z,14.23
2022-09-28T17:41:20.027Z,10.05
2022-09-28T17:43:47.490Z,13.50
2022-09-28T17:46:29.632Z,14.98
2022-09-28T17:48:59.660Z,10.90
2022-09-28T17:51:31.301Z,14.30
2022-09-28T17:54:00.924Z,12.80
2022-09-28T17:56:32.133Z,10.82
2022-09-28T17:59:03.030Z,12.13
2022-09-28T18:01:34.323Z,17.15
2022-09-28T18:04:03.673Z,11.45
2022-09-28T18:06:31.971Z,11.07
2022-09-28T18:08:58.827Z,8.15
2022-09-28T18:11:26.035Z,10.43
2022-09-28T18:13:52.815Z,13.20
2022-09-28T18:16:19.641Z,9.00
2022-09-28T18:18:47.493Z,12.48
2022-09-28T18:21:14.623Z,10.23
2022-09-28T18:23:41.778Z,9.05
2022-09-28T18:26:13.048Z,12.60
2022-09-28T18:28:40.114Z,12.50
2022-09-28T18:31:11.176Z,7.25
2022-09-28T18:33:39.319Z,11.23
2022-09-28T18:36:07.301Z,12.77
2022-09-28T18:38:37.876Z,9.88
2022-09-28T18:41:15.924Z,7.47
2022-09-28T18:43:48.904Z,8.15
2022-09-28T18:46:18.218Z,6.57
2022-09-28T18:48:45.125Z,5.95
2022-09-28T18:51:12.317Z,13.30
2022-09-28T18:53:40.111Z,5.30
2022-09-28T18:56:08.607Z,10.43
2022-09-28T18:58:39.341Z,5.60
2022-09-28T19:01:31.313Z,7.30
2022-09-28T19:04:00.609Z,5.22
2022-09-28T19:06:27.923Z,10.05
2022-09-28T19:08:58.329Z,9.63
2022-09-28T19:11:25.598Z,9.60
2022-09-28T19:13:53.506Z,13.02
2022-09-28T19:16:31.227Z,8.82
2022-09-28T19:18:58.708Z,5.88
2022-09-28T19:21:26.784Z,5.10
2022-09-28T19:23:55.457Z,8.00
2022-09-28T19:26:24.925Z,10.82
2022-09-28T19:28:51.949Z,11.40
2022-09-28T19:31:19.515Z,10.25
2022-09-28T19:33:46.784Z,7.32
2022-09-28T19:36:24.517Z,11.80
2022-09-28T19:38:55.039Z,6.15
2022-09-28T19:42:02.641Z,6.35
2022-09-28T19:44:29.950Z,8.20
2022-09-28T19:47:07.058Z,8.80
2022-09-28T19:49:38.434Z,9.75
2022-09-28T19:52:14.425Z,7.20
2022-09-28T19:55:07.384Z,9.10
2022-09-28T19:57:34.956Z,11.02
2022-09-28T20:00:03.608Z,17.35
2022-09-28T20:02:34.872Z,9.68
2022-09-28T20:05:01.905Z,10.02
2022-09-28T20:07:32.786Z,11.80
2022-09-28T20:12:26.503Z,5.88
2022-09-28T20:14:53.365Z,10.93
2022-09-28T20:17:21.777Z,13.30
2022-09-28T20:19:51.118Z,12.77
2022-09-28T20:22:18.684Z,10.50
2022-09-28T20:24:45.724Z,6.53
2022-09-28T20:27:12.470Z,11.15
2022-09-28T20:29:39.211Z,11.02
2022-09-28T20:32:05.973Z,7.53
2022-09-28T20:34:34.054Z,6.10
2022-09-28T20:37:01.623Z,13.07
2022-09-28T20:39:28.859Z,6.05
2022-09-28T20:41:56.307Z,13.65
2022-09-28T20:44:23.305Z,10.45
2022-09-28T20:46:51.301Z,10.95
2022-09-28T20:49:18.278Z,11.50
2022-09-28T20:51:45.289Z,10.25
2022-09-28T20:54:12.087Z,13.25
2022-09-28T20:56:40.261Z,7.25
2022-09-28T20:59:10.531Z,16.23
2022-09-28T21:01:39.069Z,15.50
2022-09-28T21:04:08.130Z,7.82
2022-09-28T21:06:37.668Z,10.82
2022-09-28T21:09:05.642Z,6.88
2022-09-28T21:11:35.562Z,17.92
2022-09-28T21:14:04.696Z,12.03
2022-09-28T21:16:32.994Z,12.50
2022-09-28T21:18:59.947Z,11.57
2022-09-28T21:21:27.299Z,11.82
2022-09-28T21:23:58.078Z,12.35
2022-09-28T21:26:29.279Z,8.38
2022-09-28T21:29:04.447Z,11.05
2022-09-28T21:31:48.153Z,10.05
2022-09-28T21:34:20.401Z,7.78
2022-09-28T21:36:51.037Z,13.75
2022-09-28T21:39:18.406Z,14.50
2022-09-28T21:41:45.900Z,7.43
2022-09-28T21:44:13.060Z,10.38
2022-09-28T21:46:39.974Z,11.30
2022-09-28T21:49:08.229Z,10.05
2022-09-28T21:51:35.806Z,11.32
2022-09-28T21:54:03.225Z,10.00
2022-09-28T21:56:40.184Z,9.80
2022-09-28T21:59:06.957Z,9.25
2022-09-28T22:01:33.728Z,7.40
2022-09-28T22:04:00.847Z,10.85
2022-09-28T22:06:30.918Z,8.57
2022-09-28T22:08:57.761Z,14.57
2022-09-28T22:11:26.933Z,8.85
2022-09-28T22:13:56.143Z,9.68
2022-09-28T22:16:25.487Z,12.70
2022-09-28T22:18:52.861Z,11.75
2022-09-28T22:21:24.581Z,10.68
2022-09-28T22:23:51.534Z,9.52
2022-09-28T22:26:23.872Z,9.45
2022-09-28T22:28:54.550Z,8.20
2022-09-28T22:31:24.863Z,14.68
2022-09-28T22:33:51.691Z,11.57
2022-09-28T22:36:19.217Z,10.35
2022-09-28T22:38:46.940Z,11.05
2022-09-28T22:41:19.587Z,10.52
2022-09-28T22:43:46.948Z,13.27
2022-09-28T22:46:19.581Z,10.35
2022-09-28T22:48:51.252Z,11.88
2022-09-28T22:51:18.238Z,16.23
2022-09-28T22:53:45.130Z,11.27
2022-09-28T22:56:17.498Z,12.65
2022-09-28T22:58:45.332Z,11.27
2022-09-28T23:01:14.943Z,14.25
2022-09-28T23:03:42.616Z,10.23
2022-09-28T23:06:10.071Z,11.70
2022-09-28T23:08:36.892Z,8.05
2022-09-28T23:11:03.736Z,11.07
2022-09-28T23:13:31.153Z,12.38
2022-09-28T23:15:59.682Z,8.93
2022-09-28T23:18:28.629Z,11.38
2022-09-28T23:21:06.516Z,12.57
2022-09-28T23:23:33.575Z,13.70
2022-09-28T23:26:00.406Z,6.38
2022-09-28T23:31:31.737Z,6.60
2022-09-28T23:34:00.013Z,10.23
2022-09-28T23:36:27.173Z,9.18
2022-09-28T23:38:54.088Z,12.32
2022-09-28T23:41:20.928Z,8.73
2022-09-28T23:43:47.692Z,12.43
2022-09-28T23:46:20.309Z,8.00
2022-09-28T23:48:47.622Z,13.90
2022-09-28T23:51:14.314Z,15.32
2022-09-28T23:53:41.222Z,12.77
2022-09-28T23:56:08.017Z,14.52
2022-09-28T23:58:34.841Z,9.70
